This is the latest recevied weather packets stored in our database for station/object W2SBL-1. If no packets are shown the sender has not sent any weather packets the latest 10 day(s).
| Time | Temp. | Humidity | Pressure | Rain* | Wind** | Luminosity | Snow |
|---|---|---|---|---|---|---|---|
| 1788049676 | 23.33° C | 57% | 1021.4 hPa | - | - | - | - |
| 1788048776 | 23.89° C | 57% | 1021.5 hPa | - | - | - | - |
| 1788047876 | 24.44° C | 56% | 1021.3 hPa | - | - | - | - |
| 1788046976 | 25° C | 57% | 1021.4 hPa | - | - | - | - |
| 1788046075 | 25.56° C | 56% | 1021.5 hPa | - | - | - | - |
| 1788045175 | 26.11° C | 57% | 1021.4 hPa | - | - | - | - |
| 1788044275 | 26.67° C | 57% | 1021.2 hPa | - | - | - | - |
| 1788043375 | 27.22° C | 57% | 1021 hPa | - | - | - | - |
| 1788042475 | 27.78° C | 57% | 1020.9 hPa | - | - | - | - |
| 1788041575 | 29.44° C | 55% | 1020.8 hPa | - | - | - | - |
| 1788040675 | 30.56° C | 54% | 1020.9 hPa | - | - | - | - |
| 1788039775 | 30.56° C | 53% | 1019.6 hPa | - | - | - | - |
| 1788038875 | 30.56° C | 57% | 1021.2 hPa | - | - | - | - |
| 1788037975 | 33.33° C | 53% | 1021.4 hPa | - | - | - | - |
| 1788037075 | 35.56° C | 51% | 1021.4 hPa | - | - | - | - |
| 1788036175 | 39.44° C | 45% | 1021.6 hPa | - | - | - | - |
| 1788035274 | 40.56° C | 43% | 1021.6 hPa | - | - | - | - |
| 1788034374 | 40.56° C | 42% | 1021.6 hPa | - | - | - | - |
| 1788033474 | 40° C | 45% | 1021.7 hPa | - | - | - | - |
| 1788032574 | 41.11° C | 43% | 1021.9 hPa | - | - | - | - |
| 1788031674 | 40.56° C | 43% | 1022 hPa | - | - | - | - |
| 1788030774 | 40.56° C | 43% | 1022.1 hPa | - | - | - | - |
| 1788028974 | 39.44° C | 45% | 1022.3 hPa | - | - | - | - |
| 1788028074 | 38.89° C | 45% | 1022.5 hPa | - | - | - | - |
| 1788027174 | 38.33° C | 46% | 1022.5 hPa | - | - | - | - |
* Rain since midnight (hover to see other rain measurements)
** Current wind speed in m/s (hover to see current wind gust speed)